Wickhaven, Pennsylvania
Current Conditions -  °F | °C
As of 6:53 AM on Monday 24 Nov 2014 (Local Time) from KAGC Reporting Station
Scattered Clouds Scattered Clouds  
Wind Chill: 59°   Ceiling: Unl
Heat Index: 59°   Visibility: 10mi
Dew Point: 49°   Wind: 13mph
Humidity: 69%   Direction: 190°S
Pressure: 29.46"   Gusts: 24mph
Location:  40.12°N, 79.77°W
Report Text: KAGC 241153Z 19011G21KT 10SM FEW034 SCT060 15/09 A2946 RMK AO2 SLP976 60000 70027 T01500094 10167 20122 51018
Loading
Personal Weather Stations






























Interactive Weather Map New forecast layout! Learn more

10-Day Weather Forecast

Advertisements
Track Severe Weather on mobile